sensor_id;sensor_type;location;lat;lon;timestamp;pressure;altitude;pressure_sealevel;temperature;humidity
18900;BME280;9582;52.018;6.306;2023-04-08T00:01:04;102027.53;;;4.56;59.89
18900;BME280;9582;52.018;6.306;2023-04-08T00:03:31;102026.66;;;4.56;59.88
18900;BME280;9582;52.018;6.306;2023-04-08T00:05:57;102018.03;;;4.54;59.91
18900;BME280;9582;52.018;6.306;2023-04-08T00:08:25;102024.94;;;4.53;59.92
18900;BME280;9582;52.018;6.306;2023-04-08T00:10:52;102032.72;;;4.50;59.92
18900;BME280;9582;52.018;6.306;2023-04-08T00:13:19;102037.03;;;4.47;59.93
18900;BME280;9582;52.018;6.306;2023-04-08T00:15:45;102032.72;;;4.41;59.95
18900;BME280;9582;52.018;6.306;2023-04-08T00:18:12;102040.50;;;4.40;59.94
18900;BME280;9582;52.018;6.306;2023-04-08T00:20:39;102041.34;;;4.33;59.96
18900;BME280;9582;52.018;6.306;2023-04-08T00:23:06;102043.06;;;4.29;59.96
18900;BME280;9582;52.018;6.306;2023-04-08T00:25:32;102048.22;;;4.29;59.88
18900;BME280;9582;52.018;6.306;2023-04-08T00:28:00;102049.97;;;4.33;59.74
18900;BME280;9582;52.018;6.306;2023-04-08T00:30:27;102042.22;;;4.29;59.74
18900;BME280;9582;52.018;6.306;2023-04-08T00:32:54;102044.78;;;4.23;59.84
18900;BME280;9582;52.018;6.306;2023-04-08T00:35:20;102050.81;;;4.19;59.88
18900;BME280;9582;52.018;6.306;2023-04-08T00:37:47;102053.41;;;4.17;59.95
18900;BME280;9582;52.018;6.306;2023-04-08T00:40:14;102050.81;;;4.08;60.08
18900;BME280;9582;52.018;6.306;2023-04-08T00:42:41;102055.97;;;3.99;60.26
18900;BME280;9582;52.018;6.306;2023-04-08T00:45:10;102056.84;;;3.95;60.37
18900;BME280;9582;52.018;6.306;2023-04-08T00:47:37;102062.88;;;3.97;60.33
18900;BME280;9582;52.018;6.306;2023-04-08T00:50:06;102065.44;;;3.94;60.37
18900;BME280;9582;52.018;6.306;2023-04-08T00:52:33;102062.00;;;3.93;60.37
18900;BME280;9582;52.018;6.306;2023-04-08T00:54:59;102066.28;;;3.90;60.41
18900;BME280;9582;52.018;6.306;2023-04-08T00:57:27;102068.03;;;3.86;60.47
18900;BME280;9582;52.018;6.306;2023-04-08T00:59:53;102076.66;;;3.88;60.45
18900;BME280;9582;52.018;6.306;2023-04-08T01:02:27;102072.34;;;3.86;60.42
18900;BME280;9582;52.018;6.306;2023-04-08T01:04:59;102081.81;;;3.82;60.44
18900;BME280;9582;52.018;6.306;2023-04-08T01:07:29;102077.47;;;3.74;60.57
18900;BME280;9582;52.018;6.306;2023-04-08T01:10:02;102075.72;;;3.67;60.72
18900;BME280;9582;52.018;6.306;2023-04-08T01:12:30;102078.28;;;3.62;60.84
18900;BME280;9582;52.018;6.306;2023-04-08T01:14:59;102086.03;;;3.62;60.85
18900;BME280;9582;52.018;6.306;2023-04-08T01:17:28;102079.16;;;3.61;60.83
18900;BME280;9582;52.018;6.306;2023-04-08T01:19:58;102079.16;;;3.58;60.83
18900;BME280;9582;52.018;6.306;2023-04-08T01:22:36;102085.16;;;3.54;60.89
18900;BME280;9582;52.018;6.306;2023-04-08T01:25:11;102077.38;;;3.51;60.92
18900;BME280;9582;52.018;6.306;2023-04-08T01:27:42;102080.81;;;3.48;60.92
18900;BME280;9582;52.018;6.306;2023-04-08T01:30:10;102083.41;;;3.44;60.93
18900;BME280;9582;52.018;6.306;2023-04-08T01:32:38;102080.75;;;3.36;60.97
18900;BME280;9582;52.018;6.306;2023-04-08T01:35:07;102090.19;;;3.24;61.17
18900;BME280;9582;52.018;6.306;2023-04-08T01:37:35;102092.72;;;3.19;61.33
18900;BME280;9582;52.018;6.306;2023-04-08T01:40:03;102083.22;;;3.17;61.41
18900;BME280;9582;52.018;6.306;2023-04-08T01:42:31;102085.81;;;3.17;61.35
18900;BME280;9582;52.018;6.306;2023-04-08T01:45:01;102083.22;;;3.12;61.34
18900;BME280;9582;52.018;6.306;2023-04-08T01:47:29;102080.59;;;3.05;61.43
18900;BME280;9582;52.018;6.306;2023-04-08T01:49:56;102080.50;;;2.92;61.66
18900;BME280;9582;52.018;6.306;2023-04-08T01:52:25;102080.47;;;2.88;61.83
18900;BME280;9582;52.018;6.306;2023-04-08T01:54:54;102089.94;;;2.86;61.94
18900;BME280;9582;52.018;6.306;2023-04-08T01:57:23;102087.34;;;2.81;61.96
18900;BME280;9582;52.018;6.306;2023-04-08T01:59:51;102093.25;;;2.71;62.07
18900;BME280;9582;52.018;6.306;2023-04-08T02:02:21;102094.91;;;2.63;62.29
18900;BME280;9582;52.018;6.306;2023-04-08T02:04:50;102087.16;;;2.59;62.40
18900;BME280;9582;52.018;6.306;2023-04-08T02:07:16;102088.84;;;2.54;62.48
18900;BME280;9582;52.018;6.306;2023-04-08T02:09:43;102092.97;;;2.33;62.91
18900;BME280;9582;52.018;6.306;2023-04-08T02:12:10;102088.47;;;2.17;63.47
18900;BME280;9582;52.018;6.306;2023-04-08T02:14:37;102096.09;;;2.02;64.04
18900;BME280;9582;52.018;6.306;2023-04-08T02:17:08;102094.94;;;1.76;64.91
18900;BME280;9582;52.018;6.306;2023-04-08T02:19:40;102091.34;;;1.65;65.63
18900;BME280;9582;52.018;6.306;2023-04-08T02:22:16;102092.34;;;1.76;65.41
18900;BME280;9582;52.018;6.306;2023-04-08T02:24:43;102097.56;;;1.82;64.88
18900;BME280;9582;52.018;6.306;2023-04-08T02:27:12;102096.41;;;1.56;65.41
18900;BME280;9582;52.018;6.306;2023-04-08T02:29:39;102099.63;;;1.41;66.32
18900;BME280;9582;52.018;6.306;2023-04-08T02:32:07;102103.91;;;1.39;66.87
18900;BME280;9582;52.018;6.306;2023-04-08T02:34:38;102105.63;;;1.37;66.88
18900;BME280;9582;52.018;6.306;2023-04-08T02:37:06;102111.47;;;1.26;67.33
18900;BME280;9582;52.018;6.306;2023-04-08T02:39:33;102104.63;;;1.28;67.32
18900;BME280;9582;52.018;6.306;2023-04-08T02:42:00;102107.09;;;1.22;67.38
18900;BME280;9582;52.018;6.306;2023-04-08T02:44:26;102107.81;;;1.10;67.60
18900;BME280;9582;52.018;6.306;2023-04-08T02:46:53;102107.69;;;1.02;67.59
18900;BME280;9582;52.018;6.306;2023-04-08T02:49:20;102114.44;;;0.94;67.71
18900;BME280;9582;52.018;6.306;2023-04-08T02:51:47;102116.00;;;0.83;68.21
18900;BME280;9582;52.018;6.306;2023-04-08T02:54:14;102117.59;;;0.77;68.60
18900;BME280;9582;52.018;6.306;2023-04-08T02:56:40;102118.41;;;0.74;68.67
18900;BME280;9582;52.018;6.306;2023-04-08T02:59:07;102115.88;;;0.76;68.61
18900;BME280;9582;52.018;6.306;2023-04-08T03:01:33;102116.81;;;0.82;68.45
18900;BME280;9582;52.018;6.306;2023-04-08T03:04:00;102125.47;;;0.84;68.37
18900;BME280;9582;52.018;6.306;2023-04-08T03:06:26;102121.19;;;0.86;68.36
18900;BME280;9582;52.018;6.306;2023-04-08T03:08:54;102124.53;;;0.82;68.41
18900;BME280;9582;52.018;6.306;2023-04-08T03:11:21;102120.22;;;0.80;68.48
18900;BME280;9582;52.018;6.306;2023-04-08T03:13:47;102123.63;;;0.77;68.39
18900;BME280;9582;52.018;6.306;2023-04-08T03:16:14;102129.56;;;0.73;68.36
18900;BME280;9582;52.018;6.306;2023-04-08T03:18:40;102130.34;;;0.71;68.25
18900;BME280;9582;52.018;6.306;2023-04-08T03:21:07;102130.44;;;0.75;68.00
18900;BME280;9582;52.018;6.306;2023-04-08T03:23:33;102128.84;;;0.82;67.50
18900;BME280;9582;52.018;6.306;2023-04-08T03:26:01;102132.38;;;0.88;66.88
18900;BME280;9582;52.018;6.306;2023-04-08T03:28:27;102127.38;;;0.97;66.31
18900;BME280;9582;52.018;6.306;2023-04-08T03:30:54;102130.91;;;1.04;65.68
18900;BME280;9582;52.018;6.306;2023-04-08T03:33:21;102125.81;;;1.07;65.13
18900;BME280;9582;52.018;6.306;2023-04-08T03:35:47;102130.13;;;1.09;64.77
18900;BME280;9582;52.018;6.306;2023-04-08T03:38:13;102134.47;;;1.13;64.20
18900;BME280;9582;52.018;6.306;2023-04-08T03:40:40;102142.03;;;1.03;64.35
18900;BME280;9582;52.018;6.306;2023-04-08T03:43:08;102130.81;;;0.99;64.50
18900;BME280;9582;52.018;6.306;2023-04-08T03:45:36;102132.56;;;1.02;64.51
18900;BME280;9582;52.018;6.306;2023-04-08T03:48:02;102133.50;;;1.05;64.46
18900;BME280;9582;52.018;6.306;2023-04-08T03:50:29;102141.31;;;1.10;64.22
18900;BME280;9582;52.018;6.306;2023-04-08T03:52:55;102135.34;;;1.14;63.91
18900;BME280;9582;52.018;6.306;2023-04-08T03:55:22;102138.88;;;1.21;63.54
18900;BME280;9582;52.018;6.306;2023-04-08T03:57:48;102141.47;;;1.22;63.35
18900;BME280;9582;52.018;6.306;2023-04-08T04:00:16;102136.34;;;1.24;63.22
18900;BME280;9582;52.018;6.306;2023-04-08T04:02:43;102140.59;;;1.20;63.22
18900;BME280;9582;52.018;6.306;2023-04-08T04:05:10;102150.81;;;1.14;63.28
18900;BME280;9582;52.018;6.306;2023-04-08T04:07:36;102155.84;;;1.08;63.37
18900;BME280;9582;52.018;6.306;2023-04-08T04:10:03;102156.47;;;0.93;63.72
18900;BME280;9582;52.018;6.306;2023-04-08T04:12:30;102158.84;;;0.80;64.15
18900;BME280;9582;52.018;6.306;2023-04-08T04:14:56;102157.72;;;0.64;64.63
18900;BME280;9582;52.018;6.306;2023-04-08T04:17:24;102152.34;;;0.50;65.11
18900;BME280;9582;52.018;6.306;2023-04-08T04:19:51;102159.97;;;0.46;65.48
18900;BME280;9582;52.018;6.306;2023-04-08T04:22:17;102157.41;;;0.46;65.63
18900;BME280;9582;52.018;6.306;2023-04-08T04:24:46;102161.72;;;0.48;65.71
18900;BME280;9582;52.018;6.306;2023-04-08T04:27:13;102160.00;;;0.47;65.83
18900;BME280;9582;52.018;6.306;2023-04-08T04:29:39;102168.59;;;0.48;65.97
18900;BME280;9582;52.018;6.306;2023-04-08T04:32:06;102169.44;;;0.48;66.10
18900;BME280;9582;52.018;6.306;2023-04-08T04:34:34;102168.59;;;0.48;66.20
18900;BME280;9582;52.018;6.306;2023-04-08T04:37:00;102174.75;;;0.56;66.15
18900;BME280;9582;52.018;6.306;2023-04-08T04:39:27;102172.38;;;0.68;65.87
18900;BME280;9582;52.018;6.306;2023-04-08T04:41:53;102186.25;;;0.76;65.60
18900;BME280;9582;52.018;6.306;2023-04-08T04:44:20;102180.34;;;0.83;65.29
18900;BME280;9582;52.018;6.306;2023-04-08T04:46:46;102186.44;;;0.88;65.03
18900;BME280;9582;52.018;6.306;2023-04-08T04:49:12;102192.56;;;0.95;64.78
18900;BME280;9582;52.018;6.306;2023-04-08T04:51:40;102186.66;;;1.00;64.53
18900;BME280;9582;52.018;6.306;2023-04-08T04:54:07;102185.00;;;1.05;64.34
18900;BME280;9582;52.018;6.306;2023-04-08T04:56:33;102184.19;;;1.08;64.19
18900;BME280;9582;52.018;6.306;2023-04-08T04:59:00;102183.38;;;1.10;64.08
18900;BME280;9582;52.018;6.306;2023-04-08T05:01:26;102188.47;;;1.07;64.22
18900;BME280;9582;52.018;6.306;2023-04-08T05:03:54;102182.44;;;1.04;64.48
18900;BME280;9582;52.018;6.306;2023-04-08T05:06:22;102194.38;;;1.02;64.73
18900;BME280;9582;52.018;6.306;2023-04-08T05:08:49;102190.09;;;1.02;64.93
18900;BME280;9582;52.018;6.306;2023-04-08T05:11:16;102199.59;;;1.03;65.11
18900;BME280;9582;52.018;6.306;2023-04-08T05:13:43;102201.31;;;1.04;65.16
18900;BME280;9582;52.018;6.306;2023-04-08T05:16:09;102198.75;;;1.04;65.38
18900;BME280;9582;52.018;6.306;2023-04-08T05:18:36;102202.16;;;1.03;65.74
18900;BME280;9582;52.018;6.306;2023-04-08T05:21:02;102203.03;;;1.04;66.11
18900;BME280;9582;52.018;6.306;2023-04-08T05:23:29;102203.91;;;1.07;66.04
18900;BME280;9582;52.018;6.306;2023-04-08T05:25:57;102213.44;;;1.11;65.92
18900;BME280;9582;52.018;6.306;2023-04-08T05:28:23;102213.50;;;1.14;65.98
18900;BME280;9582;52.018;6.306;2023-04-08T05:30:51;102215.19;;;1.14;66.21
18900;BME280;9582;52.018;6.306;2023-04-08T05:33:18;102214.31;;;1.12;66.76
18900;BME280;9582;52.018;6.306;2023-04-08T05:35:45;102220.41;;;1.17;67.08
18900;BME280;9582;52.018;6.306;2023-04-08T05:38:11;102222.19;;;1.21;67.36
18900;BME280;9582;52.018;6.306;2023-04-08T05:40:38;102220.59;;;1.29;67.42
18900;BME280;9582;52.018;6.306;2023-04-08T05:43:06;102219.00;;;1.37;67.22
18900;BME280;9582;52.018;6.306;2023-04-08T05:45:32;102227.72;;;1.44;67.02
18900;BME280;9582;52.018;6.306;2023-04-08T05:47:59;102224.31;;;1.46;67.22
18900;BME280;9582;52.018;6.306;2023-04-08T05:50:25;102230.31;;;1.47;67.44
18900;BME280;9582;52.018;6.306;2023-04-08T05:52:52;102229.47;;;1.48;68.00
18900;BME280;9582;52.018;6.306;2023-04-08T05:55:18;102232.13;;;1.52;68.65
18900;BME280;9582;52.018;6.306;2023-04-08T05:57:44;102233.88;;;1.55;69.44
18900;BME280;9582;52.018;6.306;2023-04-08T06:00:13;102240.81;;;1.59;70.07
18900;BME280;9582;52.018;6.306;2023-04-08T06:02:41;102236.56;;;1.62;70.82
18900;BME280;9582;52.018;6.306;2023-04-08T06:05:08;102239.16;;;1.64;71.85
18900;BME280;9582;52.018;6.306;2023-04-08T06:07:34;102239.19;;;1.67;73.20
18900;BME280;9582;52.018;6.306;2023-04-08T06:10:01;102242.66;;;1.67;74.61
18900;BME280;9582;52.018;6.306;2023-04-08T06:12:29;102241.00;;;1.72;75.53
18900;BME280;9582;52.018;6.306;2023-04-08T06:14:56;102249.59;;;1.73;76.76
18900;BME280;9582;52.018;6.306;2023-04-08T06:17:24;102244.47;;;1.76;77.17
18900;BME280;9582;52.018;6.306;2023-04-08T06:19:50;102250.53;;;1.78;77.97
18900;BME280;9582;52.018;6.306;2023-04-08T06:22:17;102254.75;;;1.73;79.99
18900;BME280;9582;52.018;6.306;2023-04-08T06:24:46;102253.91;;;1.74;89.61
18900;BME280;9582;52.018;6.306;2023-04-08T06:27:12;102262.59;;;1.79;100.00
18900;BME280;9582;52.018;6.306;2023-04-08T06:29:39;102258.38;;;1.86;100.00
18900;BME280;9582;52.018;6.306;2023-04-08T06:32:06;102258.53;;;1.95;100.00
18900;BME280;9582;52.018;6.306;2023-04-08T06:34:33;102265.59;;;2.12;100.00
18900;BME280;9582;52.018;6.306;2023-04-08T06:37:00;102275.22;;;2.24;100.00
18900;BME280;9582;52.018;6.306;2023-04-08T06:39:26;102271.00;;;2.30;100.00
18900;BME280;9582;52.018;6.306;2023-04-08T06:41:53;102281.41;;;2.37;100.00
18900;BME280;9582;52.018;6.306;2023-04-08T06:44:35;102285.78;;;2.44;100.00
18900;BME280;9582;52.018;6.306;2023-04-08T06:47:01;102289.31;;;2.50;100.00
18900;BME280;9582;52.018;6.306;2023-04-08T06:49:28;102298.81;;;2.53;100.00
18900;BME280;9582;52.018;6.306;2023-04-08T06:51:56;102299.69;;;2.55;100.00
18900;BME280;9582;52.018;6.306;2023-04-08T06:54:22;102309.19;;;2.56;100.00
18900;BME280;9582;52.018;6.306;2023-04-08T06:56:49;102301.44;;;2.56;100.00
18900;BME280;9582;52.018;6.306;2023-04-08T06:59:15;102309.25;;;2.63;100.00
18900;BME280;9582;52.018;6.306;2023-04-08T07:01:42;102307.59;;;2.67;100.00
18900;BME280;9582;52.018;6.306;2023-04-08T07:04:08;102305.97;;;2.78;100.00
18900;BME280;9582;52.018;6.306;2023-04-08T07:06:34;102303.47;;;2.84;100.00
18900;BME280;9582;52.018;6.306;2023-04-08T07:09:02;102307.03;;;2.95;100.00
18900;BME280;9582;52.018;6.306;2023-04-08T07:11:29;102311.38;;;3.02;100.00
18900;BME280;9582;52.018;6.306;2023-04-08T07:13:55;102312.38;;;3.16;100.00
18900;BME280;9582;52.018;6.306;2023-04-08T07:16:22;102308.25;;;3.33;100.00
18900;BME280;9582;52.018;6.306;2023-04-08T07:18:49;102304.88;;;3.40;100.00
18900;BME280;9582;52.018;6.306;2023-04-08T07:21:15;102311.03;;;3.58;100.00
18900;BME280;9582;52.018;6.306;2023-04-08T07:23:42;102323.19;;;3.66;100.00
18900;BME280;9582;52.018;6.306;2023-04-08T07:26:10;102320.66;;;3.78;100.00
18900;BME280;9582;52.018;6.306;2023-04-08T07:28:37;102329.41;;;3.94;100.00
18900;BME280;9582;52.018;6.306;2023-04-08T07:31:11;102324.31;;;4.06;100.00
18900;BME280;9582;52.018;6.306;2023-04-08T07:33:37;102328.69;;;4.19;100.00
18900;BME280;9582;52.018;6.306;2023-04-08T07:36:04;102339.94;;;4.27;100.00
18900;BME280;9582;52.018;6.306;2023-04-08T07:38:31;102338.25;;;4.35;100.00
18900;BME280;9582;52.018;6.306;2023-04-08T07:40:57;102335.69;;;4.38;100.00
18900;BME280;9582;52.018;6.306;2023-04-08T07:43:25;102338.34;;;4.53;100.00
18900;BME280;9582;52.018;6.306;2023-04-08T07:45:52;102340.19;;;4.82;100.00
18900;BME280;9582;52.018;6.306;2023-04-08T07:48:18;102345.44;;;5.19;100.00
18900;BME280;9582;52.018;6.306;2023-04-08T07:50:45;102346.38;;;5.61;100.00
18900;BME280;9582;52.018;6.306;2023-04-08T07:53:11;102353.28;;;5.77;100.00
18900;BME280;9582;52.018;6.306;2023-04-08T07:55:38;102344.63;;;5.93;100.00
18900;BME280;9582;52.018;6.306;2023-04-08T07:58:05;102349.81;;;5.99;100.00
18900;BME280;9582;52.018;6.306;2023-04-08T08:00:33;102346.34;;;6.09;100.00
18900;BME280;9582;52.018;6.306;2023-04-08T08:03:00;102340.28;;;6.18;100.00
18900;BME280;9582;52.018;6.306;2023-04-08T08:05:27;102340.25;;;6.25;100.00
18900;BME280;9582;52.018;6.306;2023-04-08T08:07:53;102333.28;;;6.39;100.00
18900;BME280;9582;52.018;6.306;2023-04-08T08:10:20;102336.72;;;6.45;100.00
18900;BME280;9582;52.018;6.306;2023-04-08T08:12:46;102348.78;;;6.59;100.00
18900;BME280;9582;52.018;6.306;2023-04-08T08:15:13;102340.94;;;6.74;100.00
18900;BME280;9582;52.018;6.306;2023-04-08T08:17:41;102349.53;;;6.87;100.00
18900;BME280;9582;52.018;6.306;2023-04-08T08:20:08;102356.38;;;7.00;100.00
18900;BME280;9582;52.018;6.306;2023-04-08T08:22:35;102349.41;;;7.07;100.00
18900;BME280;9582;52.018;6.306;2023-04-08T08:25:03;102355.38;;;7.21;100.00
18900;BME280;9582;52.018;6.306;2023-04-08T08:27:30;102364.91;;;7.26;100.00
18900;BME280;9582;52.018;6.306;2023-04-08T08:29:58;102355.22;;;7.43;100.00
18900;BME280;9582;52.018;6.306;2023-04-08T08:32:25;102356.78;;;7.66;100.00
18900;BME280;9582;52.018;6.306;2023-04-08T08:34:53;102362.88;;;7.66;100.00
18900;BME280;9582;52.018;6.306;2023-04-08T08:37:19;102369.81;;;7.66;100.00
18900;BME280;9582;52.018;6.306;2023-04-08T08:39:46;102364.50;;;7.78;100.00
18900;BME280;9582;52.018;6.306;2023-04-08T08:42:19;102358.44;;;7.77;100.00
18900;BME280;9582;52.018;6.306;2023-04-08T08:44:46;102366.06;;;7.98;100.00
18900;BME280;9582;52.018;6.306;2023-04-08T08:47:13;102367.66;;;8.11;100.00
18900;BME280;9582;52.018;6.306;2023-04-08T08:49:39;102357.03;;;8.34;100.00
18900;BME280;9582;52.018;6.306;2023-04-08T08:52:07;102363.16;;;8.32;100.00
18900;BME280;9582;52.018;6.306;2023-04-08T08:54:34;102374.25;;;8.49;100.00
18900;BME280;9582;52.018;6.306;2023-04-08T08:57:00;102371.38;;;8.72;100.00
18900;BME280;9582;52.018;6.306;2023-04-08T08:59:27;102372.25;;;8.70;100.00
18900;BME280;9582;52.018;6.306;2023-04-08T09:01:53;102375.69;;;8.73;100.00
18900;BME280;9582;52.018;6.306;2023-04-08T09:04:20;102386.16;;;8.71;100.00
18900;BME280;9582;52.018;6.306;2023-04-08T09:06:48;102388.50;;;8.89;100.00
18900;BME280;9582;52.018;6.306;2023-04-08T09:09:17;102399.81;;;8.91;100.00
18900;BME280;9582;52.018;6.306;2023-04-08T09:11:45;102394.34;;;9.09;100.00
18900;BME280;9582;52.018;6.306;2023-04-08T09:14:19;102390.97;;;9.01;100.00
18900;BME280;9582;52.018;6.306;2023-04-08T09:16:46;102396.94;;;9.09;100.00
18900;BME280;9582;52.018;6.306;2023-04-08T09:19:13;102403.00;;;9.13;100.00
18900;BME280;9582;52.018;6.306;2023-04-08T09:21:40;102400.41;;;9.10;100.00
18900;BME280;9582;52.018;6.306;2023-04-08T09:24:07;102403.75;;;9.22;100.00
18900;BME280;9582;52.018;6.306;2023-04-08T09:26:35;102402.06;;;9.17;100.00
18900;BME280;9582;52.018;6.306;2023-04-08T09:29:03;102410.66;;;9.23;100.00
18900;BME280;9582;52.018;6.306;2023-04-08T09:31:31;102418.50;;;9.23;100.00
18900;BME280;9582;52.018;6.306;2023-04-08T09:34:00;102412.53;;;9.15;100.00
18900;BME280;9582;52.018;6.306;2023-04-08T09:36:27;102415.97;;;9.19;100.00
18900;BME280;9582;52.018;6.306;2023-04-08T09:38:54;102417.66;;;9.21;100.00
18900;BME280;9582;52.018;6.306;2023-04-08T09:41:21;102422.84;;;9.24;100.00
18900;BME280;9582;52.018;6.306;2023-04-08T09:43:52;102429.84;;;9.22;100.00
18900;BME280;9582;52.018;6.306;2023-04-08T09:46:25;102430.78;;;9.15;100.00
18900;BME280;9582;52.018;6.306;2023-04-08T09:49:00;102429.00;;;9.17;100.00
18900;BME280;9582;52.018;6.306;2023-04-08T09:51:31;102430.59;;;9.29;100.00
18900;BME280;9582;52.018;6.306;2023-04-08T09:54:02;102433.91;;;9.40;100.00
18900;BME280;9582;52.018;6.306;2023-04-08T09:56:38;102431.25;;;9.45;100.00
18900;BME280;9582;52.018;6.306;2023-04-08T09:59:13;102436.28;;;9.57;100.00
18900;BME280;9582;52.018;6.306;2023-04-08T10:01:44;102432.91;;;9.50;100.00
18900;BME280;9582;52.018;6.306;2023-04-08T10:04:14;102432.97;;;9.46;100.00
18900;BME280;9582;52.018;6.306;2023-04-08T10:06:41;102436.41;;;9.51;100.00
18900;BME280;9582;52.018;6.306;2023-04-08T10:09:08;102434.66;;;9.50;100.00
18900;BME280;9582;52.018;6.306;2023-04-08T10:11:36;102431.19;;;9.51;100.00
18900;BME280;9582;52.018;6.306;2023-04-08T10:14:02;102430.97;;;9.63;100.00
18900;BME280;9582;52.018;6.306;2023-04-08T10:16:30;102430.97;;;9.63;100.00
18900;BME280;9582;52.018;6.306;2023-04-08T10:18:57;102437.88;;;9.67;100.00
18900;BME280;9582;52.018;6.306;2023-04-08T10:21:34;102439.72;;;9.60;100.00
18900;BME280;9582;52.018;6.306;2023-04-08T10:24:01;102433.28;;;9.84;100.00
18900;BME280;9582;52.018;6.306;2023-04-08T10:26:39;102434.16;;;9.83;100.00
18900;BME280;9582;52.018;6.306;2023-04-08T10:29:31;102437.47;;;9.93;100.00
18900;BME280;9582;52.018;6.306;2023-04-08T10:31:59;102440.78;;;10.02;100.00
18900;BME280;9582;52.018;6.306;2023-04-08T10:34:28;102444.31;;;10.01;100.00
18900;BME280;9582;52.018;6.306;2023-04-08T10:36:56;102450.31;;;10.06;100.00
18900;BME280;9582;52.018;6.306;2023-04-08T10:39:26;102445.53;;;10.32;100.00
18900;BME280;9582;52.018;6.306;2023-04-08T10:41:52;102437.34;;;10.52;100.00
18900;BME280;9582;52.018;6.306;2023-04-08T10:44:21;102441.69;;;10.52;100.00
18900;BME280;9582;52.018;6.306;2023-04-08T10:46:49;102441.03;;;10.40;100.00
18900;BME280;9582;52.018;6.306;2023-04-08T10:49:18;102440.31;;;10.32;100.00
18900;BME280;9582;52.018;6.306;2023-04-08T10:51:46;102448.38;;;10.20;100.00
18900;BME280;9582;52.018;6.306;2023-04-08T10:54:14;102451.94;;;10.15;100.00
18900;BME280;9582;52.018;6.306;2023-04-08T10:56:45;102455.59;;;10.05;100.00
18900;BME280;9582;52.018;6.306;2023-04-08T10:59:12;102449.50;;;10.04;100.00
18900;BME280;9582;52.018;6.306;2023-04-08T11:01:41;102449.50;;;10.04;100.00
18900;BME280;9582;52.018;6.306;2023-04-08T11:04:13;102454.78;;;10.00;100.00
18900;BME280;9582;52.018;6.306;2023-04-08T11:06:43;102451.38;;;9.96;100.00
18900;BME280;9582;52.018;6.306;2023-04-08T11:09:11;102443.59;;;9.92;100.00
18900;BME280;9582;52.018;6.306;2023-04-08T11:11:38;102446.19;;;9.93;100.00
18900;BME280;9582;52.018;6.306;2023-04-08T11:14:06;102446.94;;;10.00;100.00
18900;BME280;9582;52.018;6.306;2023-04-08T11:16:33;102437.31;;;10.03;100.00
18900;BME280;9582;52.018;6.306;2023-04-08T11:19:01;102439.03;;;10.04;100.00
18900;BME280;9582;52.018;6.306;2023-04-08T11:21:29;102437.25;;;10.06;100.00
18900;BME280;9582;52.018;6.306;2023-04-08T11:23:57;102436.38;;;10.07;100.00
18900;BME280;9582;52.018;6.306;2023-04-08T11:26:24;102436.28;;;10.12;100.00
18900;BME280;9582;52.018;6.306;2023-04-08T11:28:51;102437.97;;;10.17;100.00
18900;BME280;9582;52.018;6.306;2023-04-08T11:31:19;102433.50;;;10.22;100.00
18900;BME280;9582;52.018;6.306;2023-04-08T11:33:47;102432.38;;;10.38;100.00
18900;BME280;9582;52.018;6.306;2023-04-08T11:36:16;102434.84;;;10.44;100.00
18900;BME280;9582;52.018;6.306;2023-04-08T11:38:43;102441.66;;;10.55;100.00
18900;BME280;9582;52.018;6.306;2023-04-08T11:41:13;102436.19;;;10.67;100.00
18900;BME280;9582;52.018;6.306;2023-04-08T11:43:50;102435.16;;;10.74;100.00
18900;BME280;9582;52.018;6.306;2023-04-08T11:46:17;102430.81;;;10.73;100.00
18900;BME280;9582;52.018;6.306;2023-04-08T11:48:56;102436.66;;;10.85;100.00
18900;BME280;9582;52.018;6.306;2023-04-08T11:51:23;102434.59;;;11.01;100.00
18900;BME280;9582;52.018;6.306;2023-04-08T11:53:50;102438.75;;;11.11;100.00
18900;BME280;9582;52.018;6.306;2023-04-08T11:56:20;102442.00;;;11.22;100.00
18900;BME280;9582;52.018;6.306;2023-04-08T11:58:49;102451.09;;;11.05;100.00
18900;BME280;9582;52.018;6.306;2023-04-08T12:01:16;102443.66;;;10.85;100.00
18900;BME280;9582;52.018;6.306;2023-04-08T12:03:58;102444.06;;;10.65;100.00
18900;BME280;9582;52.018;6.306;2023-04-08T12:06:25;102445.59;;;10.75;100.00
18900;BME280;9582;52.018;6.306;2023-04-08T12:08:53;102451.91;;;10.65;100.00
18900;BME280;9582;52.018;6.306;2023-04-08T12:11:22;102448.41;;;10.65;100.00
18900;BME280;9582;52.018;6.306;2023-04-08T12:13:49;102449.16;;;10.71;100.00
18900;BME280;9582;52.018;6.306;2023-04-08T12:16:17;102442.94;;;10.77;100.00
18900;BME280;9582;52.018;6.306;2023-04-08T12:18:43;102438.59;;;10.77;100.00
18900;BME280;9582;52.018;6.306;2023-04-08T12:21:10;102432.25;;;10.89;100.00
18900;BME280;9582;52.018;6.306;2023-04-08T12:23:37;102436.69;;;10.84;100.00
18900;BME280;9582;52.018;6.306;2023-04-08T12:26:04;102439.41;;;10.81;100.00
18900;BME280;9582;52.018;6.306;2023-04-08T12:28:31;102442.84;;;10.83;100.00
18900;BME280;9582;52.018;6.306;2023-04-08T12:30:59;102436.78;;;10.81;100.00
18900;BME280;9582;52.018;6.306;2023-04-08T12:33:26;102445.50;;;10.80;100.00
18900;BME280;9582;52.018;6.306;2023-04-08T12:35:52;102437.50;;;10.87;100.00
18900;BME280;9582;52.018;6.306;2023-04-08T12:38:19;102435.69;;;10.91;100.00
18900;BME280;9582;52.018;6.306;2023-04-08T12:40:45;102444.34;;;10.93;100.00
18900;BME280;9582;52.018;6.306;2023-04-08T12:43:12;102447.09;;;10.88;100.00
18900;BME280;9582;52.018;6.306;2023-04-08T12:45:39;102441.84;;;10.88;100.00
18900;BME280;9582;52.018;6.306;2023-04-08T12:48:06;102447.72;;;10.99;100.00
18900;BME280;9582;52.018;6.306;2023-04-08T12:50:33;102443.25;;;11.05;100.00
18900;BME280;9582;52.018;6.306;2023-04-08T12:52:59;102449.28;;;11.08;100.00
18900;BME280;9582;52.018;6.306;2023-04-08T12:55:26;102444.94;;;11.09;100.00
18900;BME280;9582;52.018;6.306;2023-04-08T12:57:52;102445.13;;;11.39;100.00
18900;BME280;9582;52.018;6.306;2023-04-08T13:00:19;102445.75;;;11.50;100.00
18900;BME280;9582;52.018;6.306;2023-04-08T13:02:46;102446.81;;;11.42;100.00
18900;BME280;9582;52.018;6.306;2023-04-08T13:05:13;102434.03;;;11.28;100.00